sensor_id;sensor_type;location;lat;lon;timestamp;temperature;humidity
22418;DHT22;11376;50.932;4.442;2022-11-23T00:00:11;9.60;99.90
22418;DHT22;11376;50.932;4.442;2022-11-23T00:02:37;9.60;99.90
22418;DHT22;11376;50.932;4.442;2022-11-23T00:05:03;9.60;99.90
22418;DHT22;11376;50.932;4.442;2022-11-23T00:07:28;9.60;99.90
22418;DHT22;11376;50.932;4.442;2022-11-23T00:09:54;9.60;99.90
22418;DHT22;11376;50.932;4.442;2022-11-23T00:12:19;9.60;99.90
22418;DHT22;11376;50.932;4.442;2022-11-23T00:14:45;9.50;99.90
22418;DHT22;11376;50.932;4.442;2022-11-23T00:17:11;9.40;99.90
22418;DHT22;11376;50.932;4.442;2022-11-23T00:19:36;9.30;99.90
22418;DHT22;11376;50.932;4.442;2022-11-23T00:22:02;9.10;99.90
22418;DHT22;11376;50.932;4.442;2022-11-23T00:24:28;9.00;99.90
22418;DHT22;11376;50.932;4.442;2022-11-23T00:26:53;9.00;99.90
22418;DHT22;11376;50.932;4.442;2022-11-23T00:29:19;9.10;99.90
22418;DHT22;11376;50.932;4.442;2022-11-23T00:31:44;9.10;99.90
22418;DHT22;11376;50.932;4.442;2022-11-23T00:34:10;9.10;99.90
22418;DHT22;11376;50.932;4.442;2022-11-23T00:36:35;9.10;99.90
22418;DHT22;11376;50.932;4.442;2022-11-23T00:39:01;9.20;99.90
22418;DHT22;11376;50.932;4.442;2022-11-23T00:41:27;9.20;99.90
22418;DHT22;11376;50.932;4.442;2022-11-23T00:43:53;9.20;99.90
22418;DHT22;11376;50.932;4.442;2022-11-23T00:46:23;9.30;99.90
22418;DHT22;11376;50.932;4.442;2022-11-23T00:48:51;9.30;99.90
22418;DHT22;11376;50.932;4.442;2022-11-23T00:51:22;9.30;99.90
22418;DHT22;11376;50.932;4.442;2022-11-23T00:53:49;9.30;99.90
22418;DHT22;11376;50.932;4.442;2022-11-23T00:56:15;9.40;99.90
22418;DHT22;11376;50.932;4.442;2022-11-23T00:58:46;9.40;99.90
22418;DHT22;11376;50.932;4.442;2022-11-23T01:01:14;9.40;99.90
22418;DHT22;11376;50.932;4.442;2022-11-23T01:03:45;9.40;99.90
22418;DHT22;11376;50.932;4.442;2022-11-23T01:06:17;9.40;99.90
22418;DHT22;11376;50.932;4.442;2022-11-23T01:08:50;9.40;99.90
22418;DHT22;11376;50.932;4.442;2022-11-23T01:11:17;9.30;99.90
22418;DHT22;11376;50.932;4.442;2022-11-23T01:13:43;9.30;99.90
22418;DHT22;11376;50.932;4.442;2022-11-23T01:16:13;9.40;99.90
22418;DHT22;11376;50.932;4.442;2022-11-23T01:18:39;9.40;99.90
22418;DHT22;11376;50.932;4.442;2022-11-23T01:21:05;9.30;99.90
22418;DHT22;11376;50.932;4.442;2022-11-23T01:23:31;9.20;99.90
22418;DHT22;11376;50.932;4.442;2022-11-23T01:25:57;9.10;99.90
22418;DHT22;11376;50.932;4.442;2022-11-23T01:28:23;9.20;99.90
22418;DHT22;11376;50.932;4.442;2022-11-23T01:30:49;9.30;99.90
22418;DHT22;11376;50.932;4.442;2022-11-23T01:33:14;9.40;99.90
22418;DHT22;11376;50.932;4.442;2022-11-23T01:35:40;9.50;99.90
22418;DHT22;11376;50.932;4.442;2022-11-23T01:38:05;9.50;99.90
22418;DHT22;11376;50.932;4.442;2022-11-23T01:40:39;9.50;99.90
22418;DHT22;11376;50.932;4.442;2022-11-23T01:43:06;9.50;99.90
22418;DHT22;11376;50.932;4.442;2022-11-23T01:48:00;9.50;99.90
22418;DHT22;11376;50.932;4.442;2022-11-23T01:50:26;9.50;99.90
22418;DHT22;11376;50.932;4.442;2022-11-23T01:52:52;9.50;99.90
22418;DHT22;11376;50.932;4.442;2022-11-23T01:55:18;9.50;99.90
22418;DHT22;11376;50.932;4.442;2022-11-23T01:57:43;9.50;99.90
22418;DHT22;11376;50.932;4.442;2022-11-23T02:00:10;9.50;99.90
22418;DHT22;11376;50.932;4.442;2022-11-23T02:02:41;9.50;99.90
22418;DHT22;11376;50.932;4.442;2022-11-23T02:05:10;9.50;99.90
22418;DHT22;11376;50.932;4.442;2022-11-23T02:07:36;9.50;99.90
22418;DHT22;11376;50.932;4.442;2022-11-23T02:10:02;9.50;99.90
22418;DHT22;11376;50.932;4.442;2022-11-23T02:12:28;9.50;99.90
22418;DHT22;11376;50.932;4.442;2022-11-23T02:14:54;9.50;99.90
22418;DHT22;11376;50.932;4.442;2022-11-23T02:17:20;9.50;99.90
22418;DHT22;11376;50.932;4.442;2022-11-23T02:22:47;9.50;99.90
22418;DHT22;11376;50.932;4.442;2022-11-23T02:25:40;9.50;99.90
22418;DHT22;11376;50.932;4.442;2022-11-23T02:28:15;9.50;99.90
22418;DHT22;11376;50.932;4.442;2022-11-23T02:30:43;9.50;99.90
22418;DHT22;11376;50.932;4.442;2022-11-23T02:33:09;9.40;99.90
22418;DHT22;11376;50.932;4.442;2022-11-23T02:35:35;9.30;99.90
22418;DHT22;11376;50.932;4.442;2022-11-23T02:38:11;9.40;99.90
22418;DHT22;11376;50.932;4.442;2022-11-23T02:40:37;9.30;99.90
22418;DHT22;11376;50.932;4.442;2022-11-23T02:43:03;9.30;99.90
22418;DHT22;11376;50.932;4.442;2022-11-23T02:45:53;9.40;99.90
22418;DHT22;11376;50.932;4.442;2022-11-23T02:48:20;9.30;99.90
22418;DHT22;11376;50.932;4.442;2022-11-23T02:50:46;9.30;99.90
22418;DHT22;11376;50.932;4.442;2022-11-23T02:53:12;9.40;99.90
22418;DHT22;11376;50.932;4.442;2022-11-23T02:55:37;9.40;99.90
22418;DHT22;11376;50.932;4.442;2022-11-23T02:58:05;9.30;99.90
22418;DHT22;11376;50.932;4.442;2022-11-23T03:00:31;9.30;99.90
22418;DHT22;11376;50.932;4.442;2022-11-23T03:02:59;9.20;99.90
22418;DHT22;11376;50.932;4.442;2022-11-23T03:05:25;9.30;99.90
22418;DHT22;11376;50.932;4.442;2022-11-23T03:07:51;9.20;99.90
22418;DHT22;11376;50.932;4.442;2022-11-23T03:10:17;9.30;99.90
22418;DHT22;11376;50.932;4.442;2022-11-23T03:12:43;9.30;99.90
22418;DHT22;11376;50.932;4.442;2022-11-23T03:15:09;9.30;99.90
22418;DHT22;11376;50.932;4.442;2022-11-23T03:17:35;9.30;99.90
22418;DHT22;11376;50.932;4.442;2022-11-23T03:20:01;9.30;99.90
22418;DHT22;11376;50.932;4.442;2022-11-23T03:22:26;9.30;99.90
22418;DHT22;11376;50.932;4.442;2022-11-23T03:24:52;9.30;99.90
22418;DHT22;11376;50.932;4.442;2022-11-23T03:27:17;9.30;99.90
22418;DHT22;11376;50.932;4.442;2022-11-23T03:29:43;9.30;99.90
22418;DHT22;11376;50.932;4.442;2022-11-23T03:32:09;9.30;99.90
22418;DHT22;11376;50.932;4.442;2022-11-23T03:34:34;9.30;99.90
22418;DHT22;11376;50.932;4.442;2022-11-23T03:37:00;9.30;99.90
22418;DHT22;11376;50.932;4.442;2022-11-23T03:39:26;9.30;99.90
22418;DHT22;11376;50.932;4.442;2022-11-23T03:41:52;9.30;99.90
22418;DHT22;11376;50.932;4.442;2022-11-23T03:44:17;9.30;99.90
22418;DHT22;11376;50.932;4.442;2022-11-23T03:46:43;9.30;99.90
22418;DHT22;11376;50.932;4.442;2022-11-23T03:49:08;9.20;99.90
22418;DHT22;11376;50.932;4.442;2022-11-23T03:51:34;9.20;99.90
22418;DHT22;11376;50.932;4.442;2022-11-23T03:54:00;9.10;99.90
22418;DHT22;11376;50.932;4.442;2022-11-23T03:56:26;9.00;99.90
22418;DHT22;11376;50.932;4.442;2022-11-23T03:58:51;8.90;99.90
22418;DHT22;11376;50.932;4.442;2022-11-23T04:01:17;8.90;99.90
22418;DHT22;11376;50.932;4.442;2022-11-23T04:03:42;8.90;99.90
22418;DHT22;11376;50.932;4.442;2022-11-23T04:06:08;8.80;99.90
22418;DHT22;11376;50.932;4.442;2022-11-23T04:08:33;8.80;99.90
22418;DHT22;11376;50.932;4.442;2022-11-23T04:10:59;8.70;99.90
22418;DHT22;11376;50.932;4.442;2022-11-23T04:13:25;8.60;99.90
22418;DHT22;11376;50.932;4.442;2022-11-23T04:15:50;8.50;99.90
22418;DHT22;11376;50.932;4.442;2022-11-23T04:18:16;8.50;99.90
22418;DHT22;11376;50.932;4.442;2022-11-23T04:20:41;8.40;99.90
22418;DHT22;11376;50.932;4.442;2022-11-23T04:23:07;8.40;99.90
22418;DHT22;11376;50.932;4.442;2022-11-23T04:25:33;8.40;99.90
22418;DHT22;11376;50.932;4.442;2022-11-23T04:27:58;8.40;99.90
22418;DHT22;11376;50.932;4.442;2022-11-23T04:30:24;8.40;99.90
22418;DHT22;11376;50.932;4.442;2022-11-23T04:32:50;8.50;99.90
22418;DHT22;11376;50.932;4.442;2022-11-23T04:35:15;8.50;99.90
22418;DHT22;11376;50.932;4.442;2022-11-23T04:37:41;8.50;99.90
22418;DHT22;11376;50.932;4.442;2022-11-23T04:40:07;8.60;99.90
22418;DHT22;11376;50.932;4.442;2022-11-23T04:42:33;8.60;99.90
22418;DHT22;11376;50.932;4.442;2022-11-23T04:44:59;8.60;99.90
22418;DHT22;11376;50.932;4.442;2022-11-23T04:47:25;8.50;99.90
22418;DHT22;11376;50.932;4.442;2022-11-23T04:49:50;8.60;99.90
22418;DHT22;11376;50.932;4.442;2022-11-23T04:52:16;8.60;99.90
22418;DHT22;11376;50.932;4.442;2022-11-23T04:54:41;8.60;99.90
22418;DHT22;11376;50.932;4.442;2022-11-23T04:57:07;8.60;99.90
22418;DHT22;11376;50.932;4.442;2022-11-23T04:59:33;8.60;99.90
22418;DHT22;11376;50.932;4.442;2022-11-23T05:01:59;8.60;99.90
22418;DHT22;11376;50.932;4.442;2022-11-23T05:04:24;8.60;99.90
22418;DHT22;11376;50.932;4.442;2022-11-23T05:06:50;8.60;99.90
22418;DHT22;11376;50.932;4.442;2022-11-23T05:09:16;8.50;99.90
22418;DHT22;11376;50.932;4.442;2022-11-23T05:11:41;8.50;99.90
22418;DHT22;11376;50.932;4.442;2022-11-23T05:14:07;8.50;99.90
22418;DHT22;11376;50.932;4.442;2022-11-23T05:16:33;8.50;99.90
22418;DHT22;11376;50.932;4.442;2022-11-23T05:18:59;8.50;99.90
22418;DHT22;11376;50.932;4.442;2022-11-23T05:21:24;8.40;99.90
22418;DHT22;11376;50.932;4.442;2022-11-23T05:23:50;8.50;99.90
22418;DHT22;11376;50.932;4.442;2022-11-23T05:26:15;8.40;99.90
22418;DHT22;11376;50.932;4.442;2022-11-23T05:28:41;8.40;99.90
22418;DHT22;11376;50.932;4.442;2022-11-23T05:31:07;8.40;99.90
22418;DHT22;11376;50.932;4.442;2022-11-23T05:33:33;8.30;99.90
22418;DHT22;11376;50.932;4.442;2022-11-23T05:35:58;8.30;99.90
22418;DHT22;11376;50.932;4.442;2022-11-23T05:38:24;8.30;99.90
22418;DHT22;11376;50.932;4.442;2022-11-23T05:40:49;8.30;99.90
22418;DHT22;11376;50.932;4.442;2022-11-23T05:43:15;8.30;99.90
22418;DHT22;11376;50.932;4.442;2022-11-23T05:45:41;8.20;99.90
22418;DHT22;11376;50.932;4.442;2022-11-23T05:48:06;8.20;99.90
22418;DHT22;11376;50.932;4.442;2022-11-23T05:50:32;8.10;99.90
22418;DHT22;11376;50.932;4.442;2022-11-23T05:52:58;8.00;99.90
22418;DHT22;11376;50.932;4.442;2022-11-23T05:55:25;8.00;99.90
22418;DHT22;11376;50.932;4.442;2022-11-23T05:57:51;8.00;99.90
22418;DHT22;11376;50.932;4.442;2022-11-23T06:00:17;7.90;99.90
22418;DHT22;11376;50.932;4.442;2022-11-23T06:02:42;7.90;99.90
22418;DHT22;11376;50.932;4.442;2022-11-23T06:05:08;7.90;99.90
22418;DHT22;11376;50.932;4.442;2022-11-23T06:07:34;7.90;99.90
22418;DHT22;11376;50.932;4.442;2022-11-23T06:10:01;7.90;99.90
22418;DHT22;11376;50.932;4.442;2022-11-23T06:12:27;7.90;99.90
22418;DHT22;11376;50.932;4.442;2022-11-23T06:14:53;7.80;99.90
22418;DHT22;11376;50.932;4.442;2022-11-23T06:17:19;7.80;99.90
22418;DHT22;11376;50.932;4.442;2022-11-23T06:19:44;7.70;99.90
22418;DHT22;11376;50.932;4.442;2022-11-23T06:22:10;7.70;99.90
22418;DHT22;11376;50.932;4.442;2022-11-23T06:24:36;7.70;99.90
22418;DHT22;11376;50.932;4.442;2022-11-23T06:27:01;7.70;99.90
22418;DHT22;11376;50.932;4.442;2022-11-23T06:29:27;7.60;99.90
22418;DHT22;11376;50.932;4.442;2022-11-23T06:31:53;7.60;99.90
22418;DHT22;11376;50.932;4.442;2022-11-23T06:34:19;7.50;99.90
22418;DHT22;11376;50.932;4.442;2022-11-23T06:36:45;7.50;99.90
22418;DHT22;11376;50.932;4.442;2022-11-23T06:39:10;7.60;99.90
22418;DHT22;11376;50.932;4.442;2022-11-23T06:41:36;7.60;99.90
22418;DHT22;11376;50.932;4.442;2022-11-23T06:44:02;7.50;99.90
22418;DHT22;11376;50.932;4.442;2022-11-23T06:46:28;7.50;99.90
22418;DHT22;11376;50.932;4.442;2022-11-23T06:48:53;7.40;99.90
22418;DHT22;11376;50.932;4.442;2022-11-23T06:51:19;7.40;99.90
22418;DHT22;11376;50.932;4.442;2022-11-23T06:53:44;7.40;99.90
22418;DHT22;11376;50.932;4.442;2022-11-23T06:56:10;7.40;99.90
22418;DHT22;11376;50.932;4.442;2022-11-23T06:58:36;7.40;99.90
22418;DHT22;11376;50.932;4.442;2022-11-23T07:01:04;7.40;99.90
22418;DHT22;11376;50.932;4.442;2022-11-23T07:03:30;7.40;99.90
22418;DHT22;11376;50.932;4.442;2022-11-23T07:05:56;7.40;99.90
22418;DHT22;11376;50.932;4.442;2022-11-23T07:08:22;7.40;99.90
22418;DHT22;11376;50.932;4.442;2022-11-23T07:10:48;7.30;99.90
22418;DHT22;11376;50.932;4.442;2022-11-23T07:13:14;7.30;99.90
22418;DHT22;11376;50.932;4.442;2022-11-23T07:15:40;7.30;99.90
22418;DHT22;11376;50.932;4.442;2022-11-23T07:18:07;7.20;99.90
22418;DHT22;11376;50.932;4.442;2022-11-23T07:20:34;7.20;99.90
22418;DHT22;11376;50.932;4.442;2022-11-23T07:23:07;7.20;99.90
22418;DHT22;11376;50.932;4.442;2022-11-23T07:25:35;7.20;99.90
22418;DHT22;11376;50.932;4.442;2022-11-23T07:28:02;7.20;99.90
22418;DHT22;11376;50.932;4.442;2022-11-23T07:30:29;7.20;99.90
22418;DHT22;11376;50.932;4.442;2022-11-23T07:33:04;7.20;99.90
22418;DHT22;11376;50.932;4.442;2022-11-23T07:35:30;7.20;99.90
22418;DHT22;11376;50.932;4.442;2022-11-23T07:37:58;7.10;99.90
22418;DHT22;11376;50.932;4.442;2022-11-23T07:40:23;7.10;99.90
22418;DHT22;11376;50.932;4.442;2022-11-23T07:42:49;7.20;99.90
22418;DHT22;11376;50.932;4.442;2022-11-23T07:45:15;7.20;99.90
22418;DHT22;11376;50.932;4.442;2022-11-23T07:47:40;7.20;99.90
22418;DHT22;11376;50.932;4.442;2022-11-23T07:50:07;7.20;99.90
22418;DHT22;11376;50.932;4.442;2022-11-23T07:52:35;7.10;99.90
22418;DHT22;11376;50.932;4.442;2022-11-23T07:55:01;7.10;99.90
22418;DHT22;11376;50.932;4.442;2022-11-23T07:57:27;7.10;99.90
22418;DHT22;11376;50.932;4.442;2022-11-23T07:59:52;7.10;99.90
22418;DHT22;11376;50.932;4.442;2022-11-23T08:02:18;7.10;99.90
22418;DHT22;11376;50.932;4.442;2022-11-23T08:04:43;7.10;99.90
22418;DHT22;11376;50.932;4.442;2022-11-23T08:07:09;7.10;99.90
22418;DHT22;11376;50.932;4.442;2022-11-23T08:09:35;7.10;99.90
22418;DHT22;11376;50.932;4.442;2022-11-23T08:12:01;7.10;99.90
22418;DHT22;11376;50.932;4.442;2022-11-23T08:14:26;7.20;99.90
22418;DHT22;11376;50.932;4.442;2022-11-23T08:16:52;7.20;99.90
22418;DHT22;11376;50.932;4.442;2022-11-23T08:19:18;7.30;99.90
22418;DHT22;11376;50.932;4.442;2022-11-23T08:21:44;7.40;99.90
22418;DHT22;11376;50.932;4.442;2022-11-23T08:24:10;7.40;99.90
22418;DHT22;11376;50.932;4.442;2022-11-23T08:26:36;7.50;99.90
22418;DHT22;11376;50.932;4.442;2022-11-23T08:29:02;7.50;99.90
22418;DHT22;11376;50.932;4.442;2022-11-23T08:31:27;7.60;99.90
22418;DHT22;11376;50.932;4.442;2022-11-23T08:33:53;7.60;99.90
22418;DHT22;11376;50.932;4.442;2022-11-23T08:36:19;7.70;99.90
22418;DHT22;11376;50.932;4.442;2022-11-23T08:38:45;7.70;99.90
22418;DHT22;11376;50.932;4.442;2022-11-23T08:41:10;7.90;99.90
22418;DHT22;11376;50.932;4.442;2022-11-23T08:43:36;7.90;99.90
22418;DHT22;11376;50.932;4.442;2022-11-23T08:46:02;7.90;99.90
22418;DHT22;11376;50.932;4.442;2022-11-23T08:48:29;8.00;99.90
22418;DHT22;11376;50.932;4.442;2022-11-23T08:50:58;8.00;99.90
22418;DHT22;11376;50.932;4.442;2022-11-23T08:53:25;8.00;99.90
22418;DHT22;11376;50.932;4.442;2022-11-23T08:55:51;8.10;99.90
22418;DHT22;11376;50.932;4.442;2022-11-23T08:58:16;8.10;99.90
22418;DHT22;11376;50.932;4.442;2022-11-23T09:00:42;8.20;99.90
22418;DHT22;11376;50.932;4.442;2022-11-23T09:03:07;8.30;99.90
22418;DHT22;11376;50.932;4.442;2022-11-23T09:05:36;8.30;99.90
22418;DHT22;11376;50.932;4.442;2022-11-23T09:08:02;8.30;99.90
22418;DHT22;11376;50.932;4.442;2022-11-23T09:10:28;8.30;99.90
22418;DHT22;11376;50.932;4.442;2022-11-23T09:12:53;8.40;99.90
22418;DHT22;11376;50.932;4.442;2022-11-23T09:15:19;8.50;99.90
22418;DHT22;11376;50.932;4.442;2022-11-23T09:17:45;8.50;99.90
22418;DHT22;11376;50.932;4.442;2022-11-23T09:20:11;8.50;99.90
22418;DHT22;11376;50.932;4.442;2022-11-23T09:22:37;8.40;99.90
22418;DHT22;11376;50.932;4.442;2022-11-23T09:25:04;8.50;99.90
22418;DHT22;11376;50.932;4.442;2022-11-23T09:27:29;8.50;99.90
22418;DHT22;11376;50.932;4.442;2022-11-23T09:29:55;8.50;99.90
22418;DHT22;11376;50.932;4.442;2022-11-23T09:32:20;8.60;99.90
22418;DHT22;11376;50.932;4.442;2022-11-23T09:34:46;8.70;99.90
22418;DHT22;11376;50.932;4.442;2022-11-23T09:37:12;8.70;99.90
22418;DHT22;11376;50.932;4.442;2022-11-23T09:39:38;8.70;99.90
22418;DHT22;11376;50.932;4.442;2022-11-23T09:42:29;8.80;99.90
22418;DHT22;11376;50.932;4.442;2022-11-23T09:50:28;9.60;99.90
22418;DHT22;11376;50.932;4.442;2022-11-23T09:53:04;9.90;99.90
22418;DHT22;11376;50.932;4.442;2022-11-23T09:55:46;10.20;99.90
22418;DHT22;11376;50.932;4.442;2022-11-23T09:58:17;10.00;99.90
22418;DHT22;11376;50.932;4.442;2022-11-23T10:00:51;9.90;99.90
22418;DHT22;11376;50.932;4.442;2022-11-23T10:03:18;9.80;99.90
22418;DHT22;11376;50.932;4.442;2022-11-23T10:05:56;9.70;99.90
22418;DHT22;11376;50.932;4.442;2022-11-23T10:08:58;9.60;99.90
22418;DHT22;11376;50.932;4.442;2022-11-23T10:25:24;11.90;99.90
22418;DHT22;11376;50.932;4.442;2022-11-23T10:27:55;12.60;99.90
22418;DHT22;11376;50.932;4.442;2022-11-23T10:30:21;13.00;99.90
22418;DHT22;11376;50.932;4.442;2022-11-23T10:32:59;13.30;99.90
22418;DHT22;11376;50.932;4.442;2022-11-23T10:35:32;12.80;99.90
22418;DHT22;11376;50.932;4.442;2022-11-23T10:38:14;12.90;99.90
22418;DHT22;11376;50.932;4.442;2022-11-23T10:40:56;13.20;99.90
22418;DHT22;11376;50.932;4.442;2022-11-23T10:43:25;12.80;99.90
22418;DHT22;11376;50.932;4.442;2022-11-23T10:46:22;12.60;99.90
22418;DHT22;11376;50.932;4.442;2022-11-23T10:48:50;12.30;99.90
22418;DHT22;11376;50.932;4.442;2022-11-23T10:51:26;12.20;99.90
22418;DHT22;11376;50.932;4.442;2022-11-23T10:53:59;11.80;99.90
22418;DHT22;11376;50.932;4.442;2022-11-23T10:56:25;11.90;99.90
22418;DHT22;11376;50.932;4.442;2022-11-23T10:58:51;12.00;99.90
22418;DHT22;11376;50.932;4.442;2022-11-23T11:01:25;12.40;99.90
22418;DHT22;11376;50.932;4.442;2022-11-23T11:03:53;13.00;99.90
22418;DHT22;11376;50.932;4.442;2022-11-23T11:06:31;12.80;99.90
22418;DHT22;11376;50.932;4.442;2022-11-23T11:09:00;12.50;99.90
22418;DHT22;11376;50.932;4.442;2022-11-23T11:14:17;12.00;99.90
22418;DHT22;11376;50.932;4.442;2022-11-23T11:16:48;11.50;99.90
22418;DHT22;11376;50.932;4.442;2022-11-23T11:19:33;11.50;99.90
22418;DHT22;11376;50.932;4.442;2022-11-23T11:22:35;11.40;99.90
22418;DHT22;11376;50.932;4.442;2022-11-23T11:25:03;11.10;99.90
22418;DHT22;11376;50.932;4.442;2022-11-23T11:27:30;11.00;99.90
22418;DHT22;11376;50.932;4.442;2022-11-23T11:30:04;10.90;99.90
22418;DHT22;11376;50.932;4.442;2022-11-23T11:32:40;11.00;99.90
22418;DHT22;11376;50.932;4.442;2022-11-23T11:35:36;11.20;99.90
22418;DHT22;11376;50.932;4.442;2022-11-23T11:38:15;11.20;99.90
22418;DHT22;11376;50.932;4.442;2022-11-23T11:40:49;11.20;99.90
22418;DHT22;11376;50.932;4.442;2022-11-23T11:43:17;11.30;99.90
22418;DHT22;11376;50.932;4.442;2022-11-23T11:46:21;11.50;99.90
22418;DHT22;11376;50.932;4.442;2022-11-23T11:48:54;11.60;99.90
22418;DHT22;11376;50.932;4.442;2022-11-23T11:51:27;11.60;99.90
22418;DHT22;11376;50.932;4.442;2022-11-23T11:54:05;11.70;99.90
22418;DHT22;11376;50.932;4.442;2022-11-23T11:56:43;11.60;99.90
22418;DHT22;11376;50.932;4.442;2022-11-23T11:59:44;11.50;99.90
22418;DHT22;11376;50.932;4.442;2022-11-23T12:02:39;11.30;99.90
22418;DHT22;11376;50.932;4.442;2022-11-23T12:05:23;11.30;99.90
22418;DHT22;11376;50.932;4.442;2022-11-23T12:13:26;11.10;99.90
22418;DHT22;11376;50.932;4.442;2022-11-23T12:19:19;11.00;99.90
22418;DHT22;11376;50.932;4.442;2022-11-23T12:35:27;10.40;99.90
22418;DHT22;11376;50.932;4.442;2022-11-23T12:38:00;10.10;99.90
22418;DHT22;11376;50.932;4.442;2022-11-23T12:41:17;10.00;99.90
22418;DHT22;11376;50.932;4.442;2022-11-23T12:43:30;9.80;99.90
22418;DHT22;11376;50.932;4.442;2022-11-23T12:46:13;9.70;99.90
22418;DHT22;11376;50.932;4.442;2022-11-23T12:54:50;9.30;99.90
22418;DHT22;11376;50.932;4.442;2022-11-23T12:57:30;9.30;99.90
22418;DHT22;11376;50.932;4.442;2022-11-23T13:00:03;9.20;99.90
22418;DHT22;11376;50.932;4.442;2022-11-23T13:13:31;8.90;99.90
22418;DHT22;11376;50.932;4.442;2022-11-23T13:19:00;8.90;99.90
22418;DHT22;11376;50.932;4.442;2022-11-23T13:21:38;8.90;99.90
22418;DHT22;11376;50.932;4.442;2022-11-23T13:24:23;8.80;99.90
22418;DHT22;11376;50.932;4.442;2022-11-23T13:32:43;8.80;99.90
22418;DHT22;11376;50.932;4.442;2022-11-23T13:40:31;8.70;99.90
22418;DHT22;11376;50.932;4.442;2022-11-23T13:48:48;8.70;99.90
22418;DHT22;11376;50.932;4.442;2022-11-23T13:51:22;8.60;99.90
22418;DHT22;11376;50.932;4.442;2022-11-23T13:54:17;8.60;99.90
22418;DHT22;11376;50.932;4.442;2022-11-23T13:56:44;8.60;99.90
22418;DHT22;11376;50.932;4.442;2022-11-23T14:04:36;8.60;99.90
22418;DHT22;11376;50.932;4.442;2022-11-23T14:07:03;8.60;99.90
22418;DHT22;11376;50.932;4.442;2022-11-23T14:09:52;8.50;99.90
22418;DHT22;11376;50.932;4.442;2022-11-23T14:12:44;8.50;99.90
22418;DHT22;11376;50.932;4.442;2022-11-23T14:15:22;8.50;99.90
22418;DHT22;11376;50.932;4.442;2022-11-23T14:23:56;8.50;99.90
22418;DHT22;11376;50.932;4.442;2022-11-23T14:35:17;8.40;99.90
22418;DHT22;11376;50.932;4.442;2022-11-23T14:40:27;8.40;99.90
22418;DHT22;11376;50.932;4.442;2022-11-23T14:42:55;8.40;99.90
22418;DHT22;11376;50.932;4.442;2022-11-23T14:45:28;8.40;99.90
22418;DHT22;11376;50.932;4.442;2022-11-23T14:47:55;8.50;99.90
22418;DHT22;11376;50.932;4.442;2022-11-23T14:50:28;8.50;99.90
22418;DHT22;11376;50.932;4.442;2022-11-23T14:52:56;8.50;99.90
22418;DHT22;11376;50.932;4.442;2022-11-23T14:55:25;8.60;99.90
22418;DHT22;11376;50.932;4.442;2022-11-23T14:57:54;8.80;99.90
22418;DHT22;11376;50.932;4.442;2022-11-23T15:02:54;8.80;99.90
22418;DHT22;11376;50.932;4.442;2022-11-23T15:05:25;8.90;99.90
22418;DHT22;11376;50.932;4.442;2022-11-23T15:08:16;9.00;99.90
22418;DHT22;11376;50.932;4.442;2022-11-23T15:11:02;9.00;99.90
22418;DHT22;11376;50.932;4.442;2022-11-23T15:13:40;9.00;99.90
22418;DHT22;11376;50.932;4.442;2022-11-23T15:16:11;9.00;99.90
22418;DHT22;11376;50.932;4.442;2022-11-23T15:18:37;9.00;99.90
22418;DHT22;11376;50.932;4.442;2022-11-23T15:21:18;9.00;99.90
22418;DHT22;11376;50.932;4.442;2022-11-23T15:26:28;8.90;99.90
22418;DHT22;11376;50.932;4.442;2022-11-23T15:28:53;8.90;99.90
22418;DHT22;11376;50.932;4.442;2022-11-23T15:31:35;8.90;99.90
22418;DHT22;11376;50.932;4.442;2022-11-23T15:34:11;8.90;99.90
22418;DHT22;11376;50.932;4.442;2022-11-23T15:36:38;8.90;99.90
22418;DHT22;11376;50.932;4.442;2022-11-23T15:39:15;8.90;99.90
22418;DHT22;11376;50.932;4.442;2022-11-23T15:41:42;8.90;99.90
22418;DHT22;11376;50.932;4.442;2022-11-23T15:44:34;8.90;99.90
22418;DHT22;11376;50.932;4.442;2022-11-23T15:47:04;8.80;99.90
22418;DHT22;11376;50.932;4.442;2022-11-23T15:49:38;8.80;99.90
22418;DHT22;11376;50.932;4.442;2022-11-23T15:52:04;8.90;99.90
22418;DHT22;11376;50.932;4.442;2022-11-23T15:54:35;8.80;99.90
22418;DHT22;11376;50.932;4.442;2022-11-23T15:57:03;8.70;99.90
22418;DHT22;11376;50.932;4.442;2022-11-23T16:02:25;8.70;99.90
22418;DHT22;11376;50.932;4.442;2022-11-23T16:07:54;8.70;99.90
22418;DHT22;11376;50.932;4.442;2022-11-23T16:10:32;8.70;99.90
22418;DHT22;11376;50.932;4.442;2022-11-23T16:12:59;8.70;99.90
22418;DHT22;11376;50.932;4.442;2022-11-23T16:21:02;8.60;99.90
22418;DHT22;11376;50.932;4.442;2022-11-23T16:23:41;8.60;99.90
22418;DHT22;11376;50.932;4.442;2022-11-23T16:26:12;8.70;99.90
22418;DHT22;11376;50.932;4.442;2022-11-23T16:28:47;8.60;99.90
22418;DHT22;11376;50.932;4.442;2022-11-23T16:34:08;8.50;99.90
22418;DHT22;11376;50.932;4.442;2022-11-23T16:36:33;8.50;99.90
22418;DHT22;11376;50.932;4.442;2022-11-23T16:38:59;8.50;99.90
22418;DHT22;11376;50.932;4.442;2022-11-23T16:41:25;8.50;99.90
22418;DHT22;11376;50.932;4.442;2022-11-23T16:43:53;8.60;99.90
22418;DHT22;11376;50.932;4.442;2022-11-23T16:46:19;8.60;99.90
22418;DHT22;11376;50.932;4.442;2022-11-23T16:48:45;8.60;99.90
22418;DHT22;11376;50.932;4.442;2022-11-23T16:51:11;8.60;99.90
22418;DHT22;11376;50.932;4.442;2022-11-23T16:53:41;8.60;99.90
22418;DHT22;11376;50.932;4.442;2022-11-23T16:56:08;8.50;99.90
22418;DHT22;11376;50.932;4.442;2022-11-23T16:58:35;8.50;99.90
22418;DHT22;11376;50.932;4.442;2022-11-23T17:01:01;8.50;99.90
22418;DHT22;11376;50.932;4.442;2022-11-23T17:03:27;8.50;99.90
22418;DHT22;11376;50.932;4.442;2022-11-23T17:05:52;8.60;99.90
22418;DHT22;11376;50.932;4.442;2022-11-23T17:08:18;8.50;99.90
22418;DHT22;11376;50.932;4.442;2022-11-23T17:10:44;8.60;99.90
22418;DHT22;11376;50.932;4.442;2022-11-23T17:13:21;8.50;99.90
22418;DHT22;11376;50.932;4.442;2022-11-23T17:15:48;8.50;99.90
22418;DHT22;11376;50.932;4.442;2022-11-23T17:18:14;8.50;99.90
22418;DHT22;11376;50.932;4.442;2022-11-23T17:20:40;8.50;99.90
22418;DHT22;11376;50.932;4.442;2022-11-23T17:23:06;8.50;99.90
22418;DHT22;11376;50.932;4.442;2022-11-23T17:25:33;8.50;99.90
22418;DHT22;11376;50.932;4.442;2022-11-23T17:27:59;8.50;99.90
22418;DHT22;11376;50.932;4.442;2022-11-23T17:30:26;8.50;99.90
22418;DHT22;11376;50.932;4.442;2022-11-23T17:32:53;8.50;99.90
22418;DHT22;11376;50.932;4.442;2022-11-23T17:35:19;8.60;99.90
22418;DHT22;11376;50.932;4.442;2022-11-23T17:37:45;8.70;99.90
22418;DHT22;11376;50.932;4.442;2022-11-23T17:40:16;8.70;99.90
22418;DHT22;11376;50.932;4.442;2022-11-23T17:42:43;8.70;99.90
22418;DHT22;11376;50.932;4.442;2022-11-23T17:45:09;8.70;99.90
22418;DHT22;11376;50.932;4.442;2022-11-23T17:47:35;8.80;99.90
22418;DHT22;11376;50.932;4.442;2022-11-23T17:50:03;8.80;99.90
22418;DHT22;11376;50.932;4.442;2022-11-23T17:52:28;8.80;99.90
22418;DHT22;11376;50.932;4.442;2022-11-23T17:54:54;8.80;99.90
22418;DHT22;11376;50.932;4.442;2022-11-23T17:57:24;8.90;99.90
22418;DHT22;11376;50.932;4.442;2022-11-23T17:59:50;8.90;99.90
22418;DHT22;11376;50.932;4.442;2022-11-23T18:02:16;8.90;99.90
22418;DHT22;11376;50.932;4.442;2022-11-23T18:04:43;8.90;99.90